sensor_id;sensor_type;location;lat;lon;timestamp;temperature;humidity
3360;DHT22;1693;49.602;11.046;2022-07-03T00:01:59;15.00;99.90
3360;DHT22;1693;49.602;11.046;2022-07-03T00:04:26;14.80;99.90
3360;DHT22;1693;49.602;11.046;2022-07-03T00:06:54;14.80;99.90
3360;DHT22;1693;49.602;11.046;2022-07-03T00:09:23;14.80;99.90
3360;DHT22;1693;49.602;11.046;2022-07-03T00:11:50;14.70;99.90
3360;DHT22;1693;49.602;11.046;2022-07-03T00:14:17;14.70;99.90
3360;DHT22;1693;49.602;11.046;2022-07-03T00:16:45;14.70;99.90
3360;DHT22;1693;49.602;11.046;2022-07-03T00:19:12;14.70;99.90
3360;DHT22;1693;49.602;11.046;2022-07-03T00:21:45;14.60;99.90
3360;DHT22;1693;49.602;11.046;2022-07-03T00:24:20;14.60;99.90
3360;DHT22;1693;49.602;11.046;2022-07-03T00:26:53;14.50;99.90
3360;DHT22;1693;49.602;11.046;2022-07-03T00:29:22;14.50;99.90
3360;DHT22;1693;49.602;11.046;2022-07-03T00:31:49;14.40;99.90
3360;DHT22;1693;49.602;11.046;2022-07-03T00:34:19;14.40;99.90
3360;DHT22;1693;49.602;11.046;2022-07-03T00:36:47;14.40;99.90
3360;DHT22;1693;49.602;11.046;2022-07-03T00:39:14;14.40;99.90
3360;DHT22;1693;49.602;11.046;2022-07-03T00:41:44;14.40;99.90
3360;DHT22;1693;49.602;11.046;2022-07-03T00:44:13;14.40;99.90
3360;DHT22;1693;49.602;11.046;2022-07-03T00:46:41;14.40;99.90
3360;DHT22;1693;49.602;11.046;2022-07-03T00:49:10;14.40;99.90
3360;DHT22;1693;49.602;11.046;2022-07-03T00:51:39;14.40;99.90
3360;DHT22;1693;49.602;11.046;2022-07-03T00:54:08;14.40;99.90
3360;DHT22;1693;49.602;11.046;2022-07-03T00:56:38;14.30;99.90
3360;DHT22;1693;49.602;11.046;2022-07-03T00:59:05;14.30;99.90
3360;DHT22;1693;49.602;11.046;2022-07-03T01:01:35;14.30;99.90
3360;DHT22;1693;49.602;11.046;2022-07-03T01:04:11;14.40;99.90
3360;DHT22;1693;49.602;11.046;2022-07-03T01:06:52;14.30;99.90
3360;DHT22;1693;49.602;11.046;2022-07-03T01:09:28;14.30;99.90
3360;DHT22;1693;49.602;11.046;2022-07-03T01:12:03;14.40;99.90
3360;DHT22;1693;49.602;11.046;2022-07-03T01:14:42;14.30;99.90
3360;DHT22;1693;49.602;11.046;2022-07-03T01:17:20;14.40;99.90
3360;DHT22;1693;49.602;11.046;2022-07-03T01:19:48;14.50;99.90
3360;DHT22;1693;49.602;11.046;2022-07-03T01:22:28;14.60;99.90
3360;DHT22;1693;49.602;11.046;2022-07-03T01:25:23;14.60;99.90
3360;DHT22;1693;49.602;11.046;2022-07-03T01:28:07;14.60;99.90
3360;DHT22;1693;49.602;11.046;2022-07-03T01:30:37;14.50;99.90
3360;DHT22;1693;49.602;11.046;2022-07-03T01:33:07;14.40;99.90
3360;DHT22;1693;49.602;11.046;2022-07-03T01:35:36;14.30;99.90
3360;DHT22;1693;49.602;11.046;2022-07-03T01:38:06;14.30;99.90
3360;DHT22;1693;49.602;11.046;2022-07-03T01:40:36;14.20;99.90
3360;DHT22;1693;49.602;11.046;2022-07-03T01:43:06;14.10;99.90
3360;DHT22;1693;49.602;11.046;2022-07-03T01:45:37;14.10;99.90
3360;DHT22;1693;49.602;11.046;2022-07-03T01:48:06;14.10;99.90
3360;DHT22;1693;49.602;11.046;2022-07-03T01:50:34;14.00;99.90
3360;DHT22;1693;49.602;11.046;2022-07-03T01:53:05;14.00;99.90
3360;DHT22;1693;49.602;11.046;2022-07-03T01:55:34;14.00;99.90
3360;DHT22;1693;49.602;11.046;2022-07-03T01:58:01;14.00;99.90
3360;DHT22;1693;49.602;11.046;2022-07-03T02:00:31;13.90;99.90
3360;DHT22;1693;49.602;11.046;2022-07-03T02:03:06;14.00;99.90
3360;DHT22;1693;49.602;11.046;2022-07-03T02:05:38;13.90;99.90
3360;DHT22;1693;49.602;11.046;2022-07-03T02:08:36;13.80;99.90
3360;DHT22;1693;49.602;11.046;2022-07-03T02:11:14;13.80;99.90
3360;DHT22;1693;49.602;11.046;2022-07-03T02:13:52;13.80;99.90
3360;DHT22;1693;49.602;11.046;2022-07-03T02:16:25;13.70;99.90
3360;DHT22;1693;49.602;11.046;2022-07-03T02:19:04;13.60;99.90
3360;DHT22;1693;49.602;11.046;2022-07-03T02:21:32;13.60;99.90
3360;DHT22;1693;49.602;11.046;2022-07-03T02:24:13;13.50;99.90
3360;DHT22;1693;49.602;11.046;2022-07-03T02:26:48;13.50;99.90
3360;DHT22;1693;49.602;11.046;2022-07-03T02:29:18;13.50;99.90
3360;DHT22;1693;49.602;11.046;2022-07-03T02:31:56;13.40;99.90
3360;DHT22;1693;49.602;11.046;2022-07-03T02:34:24;13.40;99.90
3360;DHT22;1693;49.602;11.046;2022-07-03T02:36:56;13.30;99.90
3360;DHT22;1693;49.602;11.046;2022-07-03T02:39:27;13.30;99.90
3360;DHT22;1693;49.602;11.046;2022-07-03T02:41:58;13.20;99.90
3360;DHT22;1693;49.602;11.046;2022-07-03T02:44:31;13.10;99.90
3360;DHT22;1693;49.602;11.046;2022-07-03T02:47:19;13.20;99.90
3360;DHT22;1693;49.602;11.046;2022-07-03T02:49:56;13.00;99.90
3360;DHT22;1693;49.602;11.046;2022-07-03T02:52:30;13.00;99.90
3360;DHT22;1693;49.602;11.046;2022-07-03T02:55:02;13.00;99.90
3360;DHT22;1693;49.602;11.046;2022-07-03T02:57:37;13.00;99.90
3360;DHT22;1693;49.602;11.046;2022-07-03T03:00:06;13.00;99.90
3360;DHT22;1693;49.602;11.046;2022-07-03T03:02:52;13.00;99.90
3360;DHT22;1693;49.602;11.046;2022-07-03T03:05:28;12.90;99.90
3360;DHT22;1693;49.602;11.046;2022-07-03T03:08:15;12.90;99.90
3360;DHT22;1693;49.602;11.046;2022-07-03T03:10:45;12.90;99.90
3360;DHT22;1693;49.602;11.046;2022-07-03T03:13:15;12.90;99.90
3360;DHT22;1693;49.602;11.046;2022-07-03T03:15:57;12.90;99.90
3360;DHT22;1693;49.602;11.046;2022-07-03T03:18:28;12.80;99.90
3360;DHT22;1693;49.602;11.046;2022-07-03T03:20:59;12.90;99.90
3360;DHT22;1693;49.602;11.046;2022-07-03T03:23:35;12.90;99.90
3360;DHT22;1693;49.602;11.046;2022-07-03T03:26:04;12.90;99.90
3360;DHT22;1693;49.602;11.046;2022-07-03T03:28:32;12.90;99.90
3360;DHT22;1693;49.602;11.046;2022-07-03T03:30:59;13.00;99.90
3360;DHT22;1693;49.602;11.046;2022-07-03T03:33:28;12.90;99.90
3360;DHT22;1693;49.602;11.046;2022-07-03T03:35:57;13.00;99.90
3360;DHT22;1693;49.602;11.046;2022-07-03T03:38:24;13.00;99.90
3360;DHT22;1693;49.602;11.046;2022-07-03T03:40:52;13.00;99.90
3360;DHT22;1693;49.602;11.046;2022-07-03T03:43:20;13.10;99.90
3360;DHT22;1693;49.602;11.046;2022-07-03T03:45:47;13.10;99.90
3360;DHT22;1693;49.602;11.046;2022-07-03T03:48:14;13.10;99.90
3360;DHT22;1693;49.602;11.046;2022-07-03T03:50:43;13.20;99.90
3360;DHT22;1693;49.602;11.046;2022-07-03T03:53:10;13.20;99.90
3360;DHT22;1693;49.602;11.046;2022-07-03T03:55:52;13.30;99.90
3360;DHT22;1693;49.602;11.046;2022-07-03T03:58:19;13.30;99.90
3360;DHT22;1693;49.602;11.046;2022-07-03T04:00:47;13.40;99.90
3360;DHT22;1693;49.602;11.046;2022-07-03T04:03:14;13.40;99.90
3360;DHT22;1693;49.602;11.046;2022-07-03T04:05:42;13.50;99.90
3360;DHT22;1693;49.602;11.046;2022-07-03T04:08:11;13.50;99.90
3360;DHT22;1693;49.602;11.046;2022-07-03T04:10:38;13.60;99.90
3360;DHT22;1693;49.602;11.046;2022-07-03T04:13:06;13.60;99.90
3360;DHT22;1693;49.602;11.046;2022-07-03T04:15:33;13.60;99.90
3360;DHT22;1693;49.602;11.046;2022-07-03T04:18:00;13.70;99.90
3360;DHT22;1693;49.602;11.046;2022-07-03T04:20:27;13.80;99.90
3360;DHT22;1693;49.602;11.046;2022-07-03T04:22:55;13.80;99.90
3360;DHT22;1693;49.602;11.046;2022-07-03T04:25:22;13.90;99.90
3360;DHT22;1693;49.602;11.046;2022-07-03T04:27:49;14.00;99.90
3360;DHT22;1693;49.602;11.046;2022-07-03T04:30:17;14.00;99.90
3360;DHT22;1693;49.602;11.046;2022-07-03T04:32:44;14.10;99.90
3360;DHT22;1693;49.602;11.046;2022-07-03T04:35:12;14.20;99.90
3360;DHT22;1693;49.602;11.046;2022-07-03T04:37:39;14.30;99.90
3360;DHT22;1693;49.602;11.046;2022-07-03T04:40:08;14.40;99.90
3360;DHT22;1693;49.602;11.046;2022-07-03T04:42:36;14.50;99.90
3360;DHT22;1693;49.602;11.046;2022-07-03T04:45:05;14.70;99.90
3360;DHT22;1693;49.602;11.046;2022-07-03T04:47:33;14.70;99.90
3360;DHT22;1693;49.602;11.046;2022-07-03T04:50:00;14.80;99.90
3360;DHT22;1693;49.602;11.046;2022-07-03T04:52:27;14.90;99.90
3360;DHT22;1693;49.602;11.046;2022-07-03T04:54:54;15.00;99.90
3360;DHT22;1693;49.602;11.046;2022-07-03T04:57:23;15.10;99.90
3360;DHT22;1693;49.602;11.046;2022-07-03T04:59:50;15.30;99.90
3360;DHT22;1693;49.602;11.046;2022-07-03T05:02:17;15.40;99.90
3360;DHT22;1693;49.602;11.046;2022-07-03T05:04:44;15.70;99.90
3360;DHT22;1693;49.602;11.046;2022-07-03T05:07:11;15.80;99.90
3360;DHT22;1693;49.602;11.046;2022-07-03T05:09:38;16.00;99.90
3360;DHT22;1693;49.602;11.046;2022-07-03T05:12:07;16.10;99.90
3360;DHT22;1693;49.602;11.046;2022-07-03T05:14:36;16.40;99.90
3360;DHT22;1693;49.602;11.046;2022-07-03T05:17:03;16.50;99.90
3360;DHT22;1693;49.602;11.046;2022-07-03T05:19:31;16.70;99.90
3360;DHT22;1693;49.602;11.046;2022-07-03T05:21:58;16.90;99.90
3360;DHT22;1693;49.602;11.046;2022-07-03T05:24:25;17.10;99.90
3360;DHT22;1693;49.602;11.046;2022-07-03T05:26:52;17.40;99.90
3360;DHT22;1693;49.602;11.046;2022-07-03T05:29:20;17.60;99.90
3360;DHT22;1693;49.602;11.046;2022-07-03T05:31:48;17.90;99.90
3360;DHT22;1693;49.602;11.046;2022-07-03T05:34:15;18.10;99.90
3360;DHT22;1693;49.602;11.046;2022-07-03T05:36:42;18.30;99.90
3360;DHT22;1693;49.602;11.046;2022-07-03T05:39:09;18.50;99.90
3360;DHT22;1693;49.602;11.046;2022-07-03T05:41:54;18.80;99.90
3360;DHT22;1693;49.602;11.046;2022-07-03T05:44:21;19.00;99.90
3360;DHT22;1693;49.602;11.046;2022-07-03T05:46:49;19.10;99.90
3360;DHT22;1693;49.602;11.046;2022-07-03T05:49:17;19.30;99.90
3360;DHT22;1693;49.602;11.046;2022-07-03T05:51:44;19.60;99.90
3360;DHT22;1693;49.602;11.046;2022-07-03T05:54:11;19.60;99.90
3360;DHT22;1693;49.602;11.046;2022-07-03T05:56:38;19.70;99.90
3360;DHT22;1693;49.602;11.046;2022-07-03T05:59:05;19.80;99.90
3360;DHT22;1693;49.602;11.046;2022-07-03T06:01:32;20.00;99.90
3360;DHT22;1693;49.602;11.046;2022-07-03T06:04:01;20.10;99.90
3360;DHT22;1693;49.602;11.046;2022-07-03T06:06:28;20.20;99.90
3360;DHT22;1693;49.602;11.046;2022-07-03T06:11:22;20.50;99.90
3360;DHT22;1693;49.602;11.046;2022-07-03T06:13:50;20.40;99.90
3360;DHT22;1693;49.602;11.046;2022-07-03T06:16:17;20.50;99.90
3360;DHT22;1693;49.602;11.046;2022-07-03T06:18:44;20.60;99.90
3360;DHT22;1693;49.602;11.046;2022-07-03T06:21:12;20.70;99.90
3360;DHT22;1693;49.602;11.046;2022-07-03T06:23:39;20.70;99.90
3360;DHT22;1693;49.602;11.046;2022-07-03T06:26:06;20.80;99.90
3360;DHT22;1693;49.602;11.046;2022-07-03T06:28:33;20.90;99.90
3360;DHT22;1693;49.602;11.046;2022-07-03T06:31:00;21.00;99.90
3360;DHT22;1693;49.602;11.046;2022-07-03T06:33:28;21.10;99.90
3360;DHT22;1693;49.602;11.046;2022-07-03T06:35:55;21.10;99.90
3360;DHT22;1693;49.602;11.046;2022-07-03T06:38:24;21.10;99.90
3360;DHT22;1693;49.602;11.046;2022-07-03T06:40:52;21.20;99.90
3360;DHT22;1693;49.602;11.046;2022-07-03T06:43:19;21.20;99.90
3360;DHT22;1693;49.602;11.046;2022-07-03T06:45:46;21.40;99.90
3360;DHT22;1693;49.602;11.046;2022-07-03T06:48:13;21.30;99.90
3360;DHT22;1693;49.602;11.046;2022-07-03T06:50:40;21.40;99.90
3360;DHT22;1693;49.602;11.046;2022-07-03T06:53:07;21.60;99.90
3360;DHT22;1693;49.602;11.046;2022-07-03T06:55:36;21.70;99.90
3360;DHT22;1693;49.602;11.046;2022-07-03T06:58:03;21.60;99.90
3360;DHT22;1693;49.602;11.046;2022-07-03T07:00:30;21.80;99.90
3360;DHT22;1693;49.602;11.046;2022-07-03T07:02:58;22.00;99.90
3360;DHT22;1693;49.602;11.046;2022-07-03T07:05:25;22.10;99.90
3360;DHT22;1693;49.602;11.046;2022-07-03T07:07:52;22.20;99.90
3360;DHT22;1693;49.602;11.046;2022-07-03T07:10:19;22.10;99.90
3360;DHT22;1693;49.602;11.046;2022-07-03T07:12:47;22.10;99.90
3360;DHT22;1693;49.602;11.046;2022-07-03T07:15:14;22.10;99.90
3360;DHT22;1693;49.602;11.046;2022-07-03T07:17:42;22.30;99.90
3360;DHT22;1693;49.602;11.046;2022-07-03T07:20:10;22.50;99.90
3360;DHT22;1693;49.602;11.046;2022-07-03T07:22:37;22.60;99.90
3360;DHT22;1693;49.602;11.046;2022-07-03T07:25:06;22.70;99.90
3360;DHT22;1693;49.602;11.046;2022-07-03T07:27:33;22.80;99.90
3360;DHT22;1693;49.602;11.046;2022-07-03T07:30:02;22.90;99.90
3360;DHT22;1693;49.602;11.046;2022-07-03T07:32:29;23.00;99.90
3360;DHT22;1693;49.602;11.046;2022-07-03T07:34:56;23.00;99.90
3360;DHT22;1693;49.602;11.046;2022-07-03T07:37:24;23.00;99.90
3360;DHT22;1693;49.602;11.046;2022-07-03T07:39:51;23.10;99.90
3360;DHT22;1693;49.602;11.046;2022-07-03T07:42:18;23.20;99.90
3360;DHT22;1693;49.602;11.046;2022-07-03T07:44:45;23.10;99.90
3360;DHT22;1693;49.602;11.046;2022-07-03T07:47:13;23.20;99.90
3360;DHT22;1693;49.602;11.046;2022-07-03T07:49:41;23.30;99.90
3360;DHT22;1693;49.602;11.046;2022-07-03T07:52:07;23.40;99.90
3360;DHT22;1693;49.602;11.046;2022-07-03T07:54:36;23.60;99.90
3360;DHT22;1693;49.602;11.046;2022-07-03T07:57:03;23.40;99.90
3360;DHT22;1693;49.602;11.046;2022-07-03T07:59:31;23.50;99.90
3360;DHT22;1693;49.602;11.046;2022-07-03T08:01:58;23.70;99.90
3360;DHT22;1693;49.602;11.046;2022-07-03T08:04:43;23.80;99.90
3360;DHT22;1693;49.602;11.046;2022-07-03T08:07:28;24.00;99.90
3360;DHT22;1693;49.602;11.046;2022-07-03T08:09:55;24.10;99.90
3360;DHT22;1693;49.602;11.046;2022-07-03T08:12:22;24.20;99.90
3360;DHT22;1693;49.602;11.046;2022-07-03T08:14:49;24.30;99.90
3360;DHT22;1693;49.602;11.046;2022-07-03T08:17:16;24.50;99.90
3360;DHT22;1693;49.602;11.046;2022-07-03T08:19:44;24.50;99.90
3360;DHT22;1693;49.602;11.046;2022-07-03T08:22:12;24.60;99.90
3360;DHT22;1693;49.602;11.046;2022-07-03T08:24:39;24.70;99.90
3360;DHT22;1693;49.602;11.046;2022-07-03T08:27:06;24.80;99.90
3360;DHT22;1693;49.602;11.046;2022-07-03T08:29:33;25.00;99.90
3360;DHT22;1693;49.602;11.046;2022-07-03T08:32:00;25.20;99.90
3360;DHT22;1693;49.602;11.046;2022-07-03T08:34:27;25.20;99.90
3360;DHT22;1693;49.602;11.046;2022-07-03T08:36:56;25.20;99.90
3360;DHT22;1693;49.602;11.046;2022-07-03T08:39:23;25.20;99.90
3360;DHT22;1693;49.602;11.046;2022-07-03T08:41:51;25.10;99.90
3360;DHT22;1693;49.602;11.046;2022-07-03T08:44:21;25.20;99.90
3360;DHT22;1693;49.602;11.046;2022-07-03T08:46:49;25.30;99.90
3360;DHT22;1693;49.602;11.046;2022-07-03T08:49:18;25.30;99.90
3360;DHT22;1693;49.602;11.046;2022-07-03T08:51:45;25.20;99.90
3360;DHT22;1693;49.602;11.046;2022-07-03T08:54:14;25.30;99.90
3360;DHT22;1693;49.602;11.046;2022-07-03T08:56:43;25.40;99.90
3360;DHT22;1693;49.602;11.046;2022-07-03T08:59:10;25.40;99.90
3360;DHT22;1693;49.602;11.046;2022-07-03T09:01:38;25.50;99.90
3360;DHT22;1693;49.602;11.046;2022-07-03T09:04:10;25.50;99.90
3360;DHT22;1693;49.602;11.046;2022-07-03T09:06:40;25.40;99.90
3360;DHT22;1693;49.602;11.046;2022-07-03T09:09:08;25.40;99.90
3360;DHT22;1693;49.602;11.046;2022-07-03T09:11:37;25.50;99.90
3360;DHT22;1693;49.602;11.046;2022-07-03T09:14:05;25.60;99.90
3360;DHT22;1693;49.602;11.046;2022-07-03T09:16:34;25.60;99.90
3360;DHT22;1693;49.602;11.046;2022-07-03T09:19:02;25.60;99.90
3360;DHT22;1693;49.602;11.046;2022-07-03T09:21:41;25.80;99.90
3360;DHT22;1693;49.602;11.046;2022-07-03T09:24:10;25.90;99.90
3360;DHT22;1693;49.602;11.046;2022-07-03T09:26:50;26.10;99.90
3360;DHT22;1693;49.602;11.046;2022-07-03T09:29:18;26.30;99.90
3360;DHT22;1693;49.602;11.046;2022-07-03T09:31:53;26.40;99.00
3360;DHT22;1693;49.602;11.046;2022-07-03T09:34:22;26.40;98.30
3360;DHT22;1693;49.602;11.046;2022-07-03T09:36:50;26.50;97.90
3360;DHT22;1693;49.602;11.046;2022-07-03T09:39:20;26.60;97.40
3360;DHT22;1693;49.602;11.046;2022-07-03T09:41:58;26.70;97.00
3360;DHT22;1693;49.602;11.046;2022-07-03T09:44:33;26.80;97.80
3360;DHT22;1693;49.602;11.046;2022-07-03T09:47:12;26.90;97.20
3360;DHT22;1693;49.602;11.046;2022-07-03T09:49:48;26.90;97.20
3360;DHT22;1693;49.602;11.046;2022-07-03T09:52:27;27.00;96.40
3360;DHT22;1693;49.602;11.046;2022-07-03T09:54:55;27.10;96.30
3360;DHT22;1693;49.602;11.046;2022-07-03T09:57:26;27.10;95.60
3360;DHT22;1693;49.602;11.046;2022-07-03T10:00:14;27.00;96.40
3360;DHT22;1693;49.602;11.046;2022-07-03T10:02:56;27.00;95.40
3360;DHT22;1693;49.602;11.046;2022-07-03T10:05:25;27.20;95.60
3360;DHT22;1693;49.602;11.046;2022-07-03T10:07:55;27.00;94.50
3360;DHT22;1693;49.602;11.046;2022-07-03T10:10:23;27.30;94.60
3360;DHT22;1693;49.602;11.046;2022-07-03T10:12:53;27.40;94.30
3360;DHT22;1693;49.602;11.046;2022-07-03T10:15:22;27.30;94.60
3360;DHT22;1693;49.602;11.046;2022-07-03T10:17:51;27.50;94.20
3360;DHT22;1693;49.602;11.046;2022-07-03T10:20:24;27.70;93.50
3360;DHT22;1693;49.602;11.046;2022-07-03T10:22:53;27.50;92.20
3360;DHT22;1693;49.602;11.046;2022-07-03T10:25:21;27.50;92.10
3360;DHT22;1693;49.602;11.046;2022-07-03T10:27:48;27.40;92.70
3360;DHT22;1693;49.602;11.046;2022-07-03T10:30:19;27.50;92.60
3360;DHT22;1693;49.602;11.046;2022-07-03T10:32:48;27.60;91.40
3360;DHT22;1693;49.602;11.046;2022-07-03T10:35:20;27.80;92.20
3360;DHT22;1693;49.602;11.046;2022-07-03T10:38:04;27.70;91.20
3360;DHT22;1693;49.602;11.046;2022-07-03T10:40:40;27.90;91.60
3360;DHT22;1693;49.602;11.046;2022-07-03T10:43:31;28.20;93.60
3360;DHT22;1693;49.602;11.046;2022-07-03T10:46:22;28.60;90.20
3360;DHT22;1693;49.602;11.046;2022-07-03T10:48:59;28.60;88.60
3360;DHT22;1693;49.602;11.046;2022-07-03T10:51:27;28.70;83.00
3360;DHT22;1693;49.602;11.046;2022-07-03T10:54:19;28.70;69.60
3360;DHT22;1693;49.602;11.046;2022-07-03T10:57:15;28.90;69.90
3360;DHT22;1693;49.602;11.046;2022-07-03T11:02:45;28.90;68.40
3360;DHT22;1693;49.602;11.046;2022-07-03T11:05:23;29.00;69.20
3360;DHT22;1693;49.602;11.046;2022-07-03T11:08:17;29.20;72.00
3360;DHT22;1693;49.602;11.046;2022-07-03T11:10:44;29.50;71.90
3360;DHT22;1693;49.602;11.046;2022-07-03T11:13:31;29.80;69.50
3360;DHT22;1693;49.602;11.046;2022-07-03T11:15:58;30.10;66.50
3360;DHT22;1693;49.602;11.046;2022-07-03T11:18:31;30.10;63.70
3360;DHT22;1693;49.602;11.046;2022-07-03T11:24:24;30.10;61.60
3360;DHT22;1693;49.602;11.046;2022-07-03T11:27:13;30.30;60.10
3360;DHT22;1693;49.602;11.046;2022-07-03T11:29:41;30.60;62.30
3360;DHT22;1693;49.602;11.046;2022-07-03T11:35:51;32.10;60.20
3360;DHT22;1693;49.602;11.046;2022-07-03T11:38:24;32.80;55.10
3360;DHT22;1693;49.602;11.046;2022-07-03T11:40:53;33.30;53.70
3360;DHT22;1693;49.602;11.046;2022-07-03T11:43:21;33.90;53.00
3360;DHT22;1693;49.602;11.046;2022-07-03T11:45:48;34.50;51.60
3360;DHT22;1693;49.602;11.046;2022-07-03T11:48:16;35.70;50.50
3360;DHT22;1693;49.602;11.046;2022-07-03T11:50:47;36.50;50.10
3360;DHT22;1693;49.602;11.046;2022-07-03T11:53:33;37.20;48.30
3360;DHT22;1693;49.602;11.046;2022-07-03T11:56:02;38.50;48.50
3360;DHT22;1693;49.602;11.046;2022-07-03T12:01:26;38.60;46.00
3360;DHT22;1693;49.602;11.046;2022-07-03T12:04:02;39.20;43.40
3360;DHT22;1693;49.602;11.046;2022-07-03T12:06:35;40.70;41.60
3360;DHT22;1693;49.602;11.046;2022-07-03T12:09:12;41.20;42.10
3360;DHT22;1693;49.602;11.046;2022-07-03T12:11:39;39.00;41.10
3360;DHT22;1693;49.602;11.046;2022-07-03T12:14:07;40.10;41.40
3360;DHT22;1693;49.602;11.046;2022-07-03T12:16:34;40.00;38.90
3360;DHT22;1693;49.602;11.046;2022-07-03T12:19:05;38.70;41.70
3360;DHT22;1693;49.602;11.046;2022-07-03T12:21:36;40.30;40.20
3360;DHT22;1693;49.602;11.046;2022-07-03T12:24:12;41.10;39.50
3360;DHT22;1693;49.602;11.046;2022-07-03T12:26:40;41.00;37.90
3360;DHT22;1693;49.602;11.046;2022-07-03T12:29:08;40.10;38.10
3360;DHT22;1693;49.602;11.046;2022-07-03T12:31:39;39.50;38.10
3360;DHT22;1693;49.602;11.046;2022-07-03T12:34:06;38.80;38.60
3360;DHT22;1693;49.602;11.046;2022-07-03T12:36:34;40.10;38.10
3360;DHT22;1693;49.602;11.046;2022-07-03T12:39:01;41.20;38.40
3360;DHT22;1693;49.602;11.046;2022-07-03T12:41:31;42.40;37.50
3360;DHT22;1693;49.602;11.046;2022-07-03T12:43:59;42.60;38.40
3360;DHT22;1693;49.602;11.046;2022-07-03T12:46:27;42.20;36.40
3360;DHT22;1693;49.602;11.046;2022-07-03T12:49:08;41.00;36.20
3360;DHT22;1693;49.602;11.046;2022-07-03T12:51:39;40.30;36.50
3360;DHT22;1693;49.602;11.046;2022-07-03T12:54:07;39.90;37.20
3360;DHT22;1693;49.602;11.046;2022-07-03T12:56:36;40.80;36.70
3360;DHT22;1693;49.602;11.046;2022-07-03T12:59:04;41.50;37.80
3360;DHT22;1693;49.602;11.046;2022-07-03T13:01:43;41.00;36.60
3360;DHT22;1693;49.602;11.046;2022-07-03T13:04:11;40.00;37.50
3360;DHT22;1693;49.602;11.046;2022-07-03T13:06:40;40.40;35.50
3360;DHT22;1693;49.602;11.046;2022-07-03T13:09:08;40.70;34.80
3360;DHT22;1693;49.602;11.046;2022-07-03T13:11:39;40.60;36.30
3360;DHT22;1693;49.602;11.046;2022-07-03T13:14:08;41.10;35.80
3360;DHT22;1693;49.602;11.046;2022-07-03T13:16:42;41.80;34.30
3360;DHT22;1693;49.602;11.046;2022-07-03T13:19:10;41.50;35.40
3360;DHT22;1693;49.602;11.046;2022-07-03T13:21:37;41.90;34.40
3360;DHT22;1693;49.602;11.046;2022-07-03T13:24:09;41.40;35.40
3360;DHT22;1693;49.602;11.046;2022-07-03T13:26:38;41.80;35.70
3360;DHT22;1693;49.602;11.046;2022-07-03T13:29:05;41.50;34.50
3360;DHT22;1693;49.602;11.046;2022-07-03T13:31:35;42.30;34.40
3360;DHT22;1693;49.602;11.046;2022-07-03T13:34:02;43.40;33.50
3360;DHT22;1693;49.602;11.046;2022-07-03T13:36:30;44.00;33.40
3360;DHT22;1693;49.602;11.046;2022-07-03T13:38:58;44.20;33.20
3360;DHT22;1693;49.602;11.046;2022-07-03T13:41:26;43.50;32.30
3360;DHT22;1693;49.602;11.046;2022-07-03T13:43:54;44.10;33.10
3360;DHT22;1693;49.602;11.046;2022-07-03T13:46:22;43.80;32.50
3360;DHT22;1693;49.602;11.046;2022-07-03T13:48:49;43.20;31.90
3360;DHT22;1693;49.602;11.046;2022-07-03T13:51:16;43.20;32.00
3360;DHT22;1693;49.602;11.046;2022-07-03T13:53:44;43.00;32.80
3360;DHT22;1693;49.602;11.046;2022-07-03T13:56:11;43.20;32.00
3360;DHT22;1693;49.602;11.046;2022-07-03T13:58:40;43.60;32.30
3360;DHT22;1693;49.602;11.046;2022-07-03T14:01:08;42.80;31.80
3360;DHT22;1693;49.602;11.046;2022-07-03T14:03:35;42.40;31.70
3360;DHT22;1693;49.602;11.046;2022-07-03T14:06:02;41.60;31.30
3360;DHT22;1693;49.602;11.046;2022-07-03T14:08:29;40.40;31.90
3360;DHT22;1693;49.602;11.046;2022-07-03T14:10:58;40.20;32.40
3360;DHT22;1693;49.602;11.046;2022-07-03T14:13:26;41.00;33.30
3360;DHT22;1693;49.602;11.046;2022-07-03T14:15:54;41.80;32.60
3360;DHT22;1693;49.602;11.046;2022-07-03T14:18:22;42.90;32.80
3360;DHT22;1693;49.602;11.046;2022-07-03T14:20:50;42.90;31.30
3360;DHT22;1693;49.602;11.046;2022-07-03T14:23:17;42.90;32.10
3360;DHT22;1693;49.602;11.046;2022-07-03T14:25:44;43.50;31.00
3360;DHT22;1693;49.602;11.046;2022-07-03T14:28:11;43.20;31.90
3360;DHT22;1693;49.602;11.046;2022-07-03T14:30:56;43.80;32.00
3360;DHT22;1693;49.602;11.046;2022-07-03T14:33:42;44.30;30.90
3360;DHT22;1693;49.602;11.046;2022-07-03T14:36:09;43.80;30.40
3360;DHT22;1693;49.602;11.046;2022-07-03T14:38:36;43.60;30.50
3360;DHT22;1693;49.602;11.046;2022-07-03T14:41:03;43.60;30.20
3360;DHT22;1693;49.602;11.046;2022-07-03T14:43:31;43.20;30.70
3360;DHT22;1693;49.602;11.046;2022-07-03T14:45:58;43.50;31.20
3360;DHT22;1693;49.602;11.046;2022-07-03T14:48:25;43.60;31.20
3360;DHT22;1693;49.602;11.046;2022-07-03T14:50:54;43.80;31.00
3360;DHT22;1693;49.602;11.046;2022-07-03T14:53:29;43.60;30.70
3360;DHT22;1693;49.602;11.046;2022-07-03T14:58:28;45.00;30.70
3360;DHT22;1693;49.602;11.046;2022-07-03T15:00:56;45.20;30.20
3360;DHT22;1693;49.602;11.046;2022-07-03T15:03:49;45.10;30.60
3360;DHT22;1693;49.602;11.046;2022-07-03T15:06:23;44.90;31.20
3360;DHT22;1693;49.602;11.046;2022-07-03T15:08:59;44.20;31.10
3360;DHT22;1693;49.602;11.046;2022-07-03T15:11:33;44.30;32.10
3360;DHT22;1693;49.602;11.046;2022-07-03T15:14:20;45.30;31.30
3360;DHT22;1693;49.602;11.046;2022-07-03T15:16:47;45.70;31.30
3360;DHT22;1693;49.602;11.046;2022-07-03T15:19:16;45.90;30.60
3360;DHT22;1693;49.602;11.046;2022-07-03T15:21:47;45.60;30.00
3360;DHT22;1693;49.602;11.046;2022-07-03T15:24:15;45.50;30.10
3360;DHT22;1693;49.602;11.046;2022-07-03T15:26:49;43.50;30.00
3360;DHT22;1693;49.602;11.046;2022-07-03T15:29:18;42.30;31.20
3360;DHT22;1693;49.602;11.046;2022-07-03T15:31:46;42.10;32.00
3360;DHT22;1693;49.602;11.046;2022-07-03T15:34:13;43.50;32.80
3360;DHT22;1693;49.602;11.046;2022-07-03T15:36:44;43.70;31.70
3360;DHT22;1693;49.602;11.046;2022-07-03T15:39:32;43.10;31.10
3360;DHT22;1693;49.602;11.046;2022-07-03T15:42:07;42.80;32.00
3360;DHT22;1693;49.602;11.046;2022-07-03T15:44:38;43.40;31.50
3360;DHT22;1693;49.602;11.046;2022-07-03T15:47:26;42.50;32.30
3360;DHT22;1693;49.602;11.046;2022-07-03T15:50:00;42.70;32.00
3360;DHT22;1693;49.602;11.046;2022-07-03T15:52:28;42.70;31.90
3360;DHT22;1693;49.602;11.046;2022-07-03T15:55:01;43.60;32.10
3360;DHT22;1693;49.602;11.046;2022-07-03T15:57:39;43.70;32.30
3360;DHT22;1693;49.602;11.046;2022-07-03T16:00:10;43.50;31.80
3360;DHT22;1693;49.602;11.046;2022-07-03T16:02:49;43.00;31.10
3360;DHT22;1693;49.602;11.046;2022-07-03T16:05:25;43.50;32.40
3360;DHT22;1693;49.602;11.046;2022-07-03T16:10:27;45.30;30.50
3360;DHT22;1693;49.602;11.046;2022-07-03T16:12:57;45.50;30.20
3360;DHT22;1693;49.602;11.046;2022-07-03T16:15:27;45.50;29.70
3360;DHT22;1693;49.602;11.046;2022-07-03T16:17:55;44.60;30.00
3360;DHT22;1693;49.602;11.046;2022-07-03T16:20:24;44.30;30.00
3360;DHT22;1693;49.602;11.046;2022-07-03T16:22:55;43.40;29.80
3360;DHT22;1693;49.602;11.046;2022-07-03T16:25:24;43.40;30.50
3360;DHT22;1693;49.602;11.046;2022-07-03T16:27:53;44.10;31.00